International Virtual Aviation Organisation

Eastern Europe and Northern Asia MCD

 
UNKL 200930Z 26008G16MPS 9999 BKN043 M03/M12 Q1016 R29/CLRD65 NOSIG RMK QFE737
QNH:(hPa/inHg/mmHg)1016 / 30 / 762
QFE:(hPa/inHg/mmHg)981 / 28.97 / 736
Temperature-3
Dew Point-12
Visibility> 10000
Weather
Cloud CoverBKN (4300);
Transition Height1100 m./4600 ft.
Transition LevelFL60
SQUAWK